Latest Weather Observations for Gladstone Airport

IDQ60801

Issued at 5:32 pm EST Monday 27 June 2016 (issued every 30 minutes, with the page automatically refreshed every 10 minutes)

About weather observations | Map of weather stations | Latest weather observations for QLD | Other Formats
Station Details ID: 039326 Name: GLADSTONE AIRPORT Lat: -23.87 Lon: 151.22 Height: 16.6 m
Data from the previous 72 hours. | See also: Recent months at Gladstone Airport
Date/Time
EST
Temp
°C
App
Temp
°C
Dew
Point
°C
Rel
Hum
%
Delta-T
°C
Wind Press
QNH
hPa
Press
MSL
hPa
Rain since
9am
mm
Dir  Spd
km/h
Gust
km/h
Spd
kts
Gust
kts
27/05:30pm 18.4 17.8 14.5 78 2.3 WSW 11 19 6 10 1016.7 1016.7 6.0
27/05:00pm 19.3 18.8 14.8 75 2.6 WSW 11 19 6 10 1016.2 1016.2 6.0
27/04:30pm 20.0 19.2 15.0 73 2.9 WSW 13 22 7 12 1015.8 1015.8 6.0
27/04:00pm 20.3 20.2 15.9 76 2.6 WSW 11 19 6 10 1015.4 1015.4 6.0
27/03:30pm 20.7 21.0 17.1 80 2.2 WSW 11 20 6 11 1015.0 1015.0 6.0
27/03:00pm 19.9 20.5 16.9 83 1.8 WSW 9 17 5 9 1015.0 1015.0 6.0
27/02:30pm 19.3 19.9 16.7 85 1.6 SW 9 17 5 9 1015.1 1015.1 6.0
27/02:00pm 18.3 19.2 16.6 90 1.0 WSW 7 9 4 5 1015.0 1015.0 6.0
27/01:30pm 17.7 17.8 16.4 92 0.8 SW 11 15 6 8 1015.2 1015.2 6.0
27/01:23pm 17.9 18.4 16.6 92 0.8 SW 9 15 5 8 1015.3 1015.3 6.0
27/01:06pm 17.6 18.4 16.3 92 0.8 SW 7 13 4 7 1015.6 1015.6 6.0
27/01:00pm 17.4 18.1 16.1 92 0.8 SW 7 13 4 7 1015.7 1015.7 6.0
27/12:56pm 17.3 18.2 16.0 92 0.8 SW 6 11 3 6 1015.7 1015.7 6.0
27/12:30pm 17.0 17.6 15.9 93 0.6 SW 7 13 4 7 1016.0 1016.0 5.8
27/12:25pm 17.0 17.3 15.9 93 0.6 SW 9 13 5 7 1016.1 1016.1 5.2
27/12:00pm 16.8 16.9 15.5 92 0.8 SW 9 13 5 7 1016.4 1016.4 3.4
27/11:44am 16.8 16.9 15.5 92 0.8 SW 9 13 5 7 1016.7 1016.7 2.8
27/11:30am 16.8 17.2 15.3 91 0.9 SSW 7 11 4 6 1016.8 1016.8 1.8
27/11:10am 16.7 16.7 15.1 90 0.9 SSW 9 13 5 7 1016.9 1016.9 1.2
27/11:00am 16.6 16.4 14.8 89 1.0 SSW 9 17 5 9 1017.1 1017.1 0.8
27/10:30am 16.9 16.2 14.2 84 1.5 SW 11 17 6 9 1017.5 1017.5 0.4
27/10:00am 18.0 18.0 14.1 78 2.2 SW 7 13 4 7 1017.1 1017.1 0.0
27/09:30am 18.3 18.0 13.4 73 2.8 SW 7 11 4 6 1017.0 1017.0 0.0
27/09:00am 17.5 17.1 13.0 75 2.5 SSW 7 13 4 7 1016.9 1016.9 0.0
27/08:30am 16.6 15.4 12.8 78 2.1 SSW 11 17 6 9 1017.0 1017.0 0.0
27/08:00am 15.9 15.3 12.3 79 2.0 SSW 7 13 4 7 1016.7 1016.7 0.0
27/07:30am 15.5 15.0 12.1 80 1.9 SW 6 9 3 5 1016.7 1016.7 0.0
27/07:00am 15.1 14.4 11.9 81 1.7 SSW 7 11 4 6 1016.7 1016.7 0.0
27/06:30am 14.7 13.5 11.7 82 1.6 SSW 9 13 5 7 1016.6 1016.6 0.0
27/06:00am 14.8 13.3 11.8 82 1.6 SW 11 17 6 9 1016.5 1016.5 0.0
27/05:30am 14.6 13.4 11.6 82 1.6 SSW 9 13 5 7 1016.2 1016.2 0.0
27/05:00am 14.7 13.5 11.7 82 1.6 SW 9 13 5 7 1016.0 1016.0 0.0
27/04:30am 14.6 13.0 11.6 82 1.6 SSW 11 15 6 8 1015.9 1015.9 0.0
27/04:00am 14.7 13.5 11.5 81 1.7 SW 9 13 5 7 1015.9 1015.9 0.0
27/03:30am 14.5 14.6 11.5 82 1.6 WNW 2 9 1 5 1015.7 1015.7 0.0
27/03:00am 14.2 12.9 11.4 83 1.5 SSW 9 17 5 9 1016.3 1016.3 0.0
27/02:30am 14.1 12.8 11.4 84 1.4 SW 9 13 5 7 1016.2 1016.2 0.0
27/02:00am 14.1 12.4 11.3 83 1.5 SSW 11 15 6 8 1016.4 1016.4 0.0
27/01:30am 14.6 13.7 11.4 81 1.7 SW 7 11 4 6 1016.5 1016.5 0.0
27/01:00am 14.7 15.2 11.7 82 1.6 CALM 0 0 0 0 1016.6 1016.6 0.0
27/12:30am 14.8 14.6 11.8 82 1.6 SSW 4 7 2 4 1016.8 1016.8 0.0
27/12:00am 14.4 13.8 11.6 83 1.5 SSW 6 7 3 4 1017.2 1017.2 0.0
 
Date/Time
EST
Temp
°C
App
Temp
°C
Dew
Point
°C
Rel
Hum
%
Delta-T
°C
Wind Press
QNH
hPa
Press
MSL
hPa
Rain since
9am
mm
Dir  Spd
km/h
Gust
km/h
Spd
kts
Gust
kts
26/11:30pm 14.1 13.4 11.4 84 1.4 SSW 6 7 3 4 1017.3 1017.3 0.0
26/11:00pm 14.1 13.4 11.3 83 1.5 SSW 6 7 3 4 1017.4 1017.4 0.0
26/10:30pm 14.3 13.4 11.3 82 1.6 SSW 7 9 4 5 1017.8 1017.8 0.0
26/10:00pm 14.5 14.5 11.3 81 1.7 S 2 9 1 5 1017.8 1017.8 0.0
26/09:30pm 15.4 16.0 11.8 79 1.9 CALM 0 0 0 0 1018.1 1018.1 0.0
26/09:00pm 15.9 16.4 11.7 76 2.3 CALM 0 0 0 0 1018.4 1018.4 0.0
26/08:30pm 15.9 16.5 11.9 77 2.2 CALM 0 0 0 0 1018.4 1018.4 0.0
26/08:00pm 15.6 14.8 11.6 77 2.2 SSW 7 9 4 5 1018.6 1018.6 0.0
26/07:30pm 15.4 15.8 11.4 77 2.1 CALM 0 2 0 1 1018.5 1018.5 0.0
26/07:00pm 15.5 15.1 11.1 75 2.3 SSE 4 6 2 3 1018.4 1018.4 0.0
26/06:30pm 16.6 15.9 11.3 71 2.9 E 6 7 3 4 1018.0 1018.0 0.0
26/06:00pm 17.4 16.5 11.2 67 3.3 ESE 7 9 4 5 1017.6 1017.6 0.0
26/05:30pm 17.6 16.7 11.2 66 3.5 E 7 11 4 6 1016.9 1016.9 0.0
26/05:00pm 18.2 16.4 10.8 62 4.0 ENE 11 15 6 8 1016.6 1016.6 0.0
26/04:30pm 18.5 15.4 10.3 59 4.4 E 17 19 9 10 1016.4 1016.4 0.0
26/04:00pm 19.3 16.6 10.3 56 4.8 ENE 15 20 8 11 1016.6 1016.6 0.0
26/03:30pm 19.3 16.7 9.5 53 5.2 ENE 13 17 7 9 1016.8 1016.8 0.0
26/03:00pm 19.5 16.9 9.4 52 5.3 NE 13 17 7 9 1016.9 1016.9 0.0
26/02:30pm 19.7 17.4 9.0 50 5.6 ENE 11 15 6 8 1017.1 1017.1 0.0
26/02:00pm 20.1 18.2 9.1 49 5.8 ENE 9 17 5 9 1017.5 1017.5 0.0
26/01:30pm 20.0 17.6 8.7 48 5.9 ENE 11 19 6 10 1017.6 1017.6 0.0
26/01:00pm 19.5 16.5 7.9 47 6.0 ENE 13 19 7 10 1017.9 1017.9 0.0
26/12:30pm 20.0 17.4 7.7 45 6.3 ENE 11 17 6 9 1018.3 1018.3 0.0
26/12:00pm 19.5 16.8 7.3 45 6.2 E 11 15 6 8 1018.9 1018.9 0.0
26/11:30am 19.7 17.6 6.8 43 6.5 S 7 13 4 7 1019.5 1019.5 0.0
26/11:00am 18.6 16.9 6.1 44 6.2 N 4 11 2 6 1020.1 1020.1 0.0
26/10:30am 16.6 13.7 4.9 46 5.6 SW 9 13 5 7 1020.4 1020.4 0.0
26/10:00am 15.5 12.3 5.1 50 4.9 SW 11 17 6 9 1020.8 1020.8 0.0
26/09:30am 13.7 10.3 4.0 52 4.4 SSW 11 15 6 8 1020.9 1020.9 0.0
26/09:00am 12.0 8.5 3.5 56 3.8 SSW 11 17 6 9 1020.8 1020.8 0.0
26/08:30am 10.4 6.8 3.2 61 3.1 SSW 11 17 6 9 1020.9 1020.9 0.0
26/08:00am 8.9 4.8 2.3 63 2.8 SSW 13 19 7 10 1020.8 1020.8 0.0
26/07:30am 7.8 4.0 1.6 65 2.5 SSW 11 19 6 10 1020.4 1020.4 0.0
26/07:00am 7.2 2.9 1.3 66 2.4 SW 13 17 7 9 1020.4 1020.4 0.0
26/06:30am 7.2 3.3 1.1 65 2.4 SSW 11 17 6 9 1020.0 1020.0 0.0
26/06:00am 7.0 3.9 1.3 67 2.3 SW 7 13 4 7 1019.7 1019.7 0.0
26/05:30am 7.3 3.8 1.4 66 2.4 SW 9 13 5 7 1019.3 1019.3 0.0
26/05:00am 7.1 3.3 1.6 68 2.2 SSW 11 19 6 10 1019.3 1019.3 0.0
26/04:30am 7.7 3.5 1.8 66 2.4 SW 13 19 7 10 1019.0 1019.0 0.0
26/04:00am 7.8 4.0 1.9 66 2.4 SW 11 15 6 8 1019.0 1019.0 0.0
26/03:30am 8.0 4.6 2.0 66 2.5 SSW 9 13 5 7 1018.9 1018.9 0.0
26/03:00am 8.9 5.5 1.8 61 2.9 SW 9 13 5 7 1018.9 1018.9 0.0
26/02:30am 9.3 5.9 1.7 59 3.2 SSW 9 13 5 7 1018.8 1018.8 0.0
26/02:00am 9.2 5.9 2.5 63 2.8 SSW 9 13 5 7 1018.8 1018.8 0.0
26/01:30am 9.3 6.5 2.9 64 2.7 SSW 7 9 4 5 1018.7 1018.7 0.0
26/01:00am 9.8 7.0 2.9 62 3.0 SSW 7 11 4 6 1019.2 1019.2 0.0
26/12:30am 10.2 7.1 3.5 63 2.9 SSW 9 13 5 7 1019.2 1019.2 0.0
26/12:00am 10.4 7.9 3.9 64 2.9 S 6 9 3 5 1019.6 1019.6 0.0
 
Date/Time
EST
Temp
°C
App
Temp
°C
Dew
Point
°C
Rel
Hum
%
Delta-T
°C
Wind Press
QNH
hPa
Press
MSL
hPa
Rain since
9am
mm
Dir  Spd
km/h
Gust
km/h
Spd
kts
Gust
kts
25/11:30pm 10.3 8.2 5.7 73 2.1 S 6 7 3 4 1019.8 1019.8 0.0
25/11:00pm 11.2 8.3 6.5 73 2.2 SSW 11 13 6 7 1020.0 1020.0 0.0
25/10:30pm 11.1 8.3 6.8 75 2.0 SW 11 13 6 7 1020.1 1020.1 0.0
25/10:00pm 11.3 9.5 7.0 75 2.0 SSW 6 9 3 5 1019.8 1019.8 0.0
25/09:30pm 11.1 10.4 7.0 76 2.0 CALM 0 0 0 0 1019.7 1019.7 0.0
25/09:00pm 11.5 10.9 7.6 77 1.9 CALM 0 0 0 0 1019.4 1019.4 0.0
25/08:30pm 12.1 11.2 7.6 74 2.2 S 2 11 1 6 1019.3 1019.3 0.0
25/08:00pm 12.4 11.8 7.5 72 2.4 CALM 0 6 0 3 1019.2 1019.2 0.0
25/07:30pm 13.1 12.5 7.3 68 2.8 CALM 0 0 0 0 1019.1 1019.1 0.0
25/07:00pm 13.8 11.8 7.1 64 3.3 SSW 7 9 4 5 1019.0 1019.0 0.0
25/06:30pm 15.4 14.0 7.2 58 4.0 E 4 7 2 4 1018.5 1018.5 0.0
25/06:00pm 16.2 14.7 6.6 53 4.7 ENE 4 6 2 3 1018.3 1018.3 0.0
25/05:30pm 16.9 14.7 6.4 50 5.2 ENE 7 9 4 5 1018.1 1018.1 0.0
25/05:00pm 17.7 15.1 6.3 47 5.6 ENE 9 11 5 6 1017.9 1017.9 0.0
25/04:30pm 18.4 15.0 5.9 44 6.1 ENE 13 17 7 9 1017.5 1017.5 0.0
25/04:00pm 19.0 15.3 6.2 43 6.3 ENE 15 19 8 10 1017.1 1017.1 0.0
25/03:30pm 20.0 16.9 5.6 39 7.1 ENE 11 19 6 10 1016.8 1016.8 0.0
25/03:00pm 21.0 18.0 2.3 29 8.7 ESE 7 11 4 6 1016.7 1016.7 0.0
25/02:30pm 21.1 18.3 1.9 28 8.9 ESE 6 13 3 7 1016.6 1016.6 0.0
25/02:00pm 20.5 17.5 2.3 30 8.4 W 7 13 4 7 1017.0 1017.0 0.0
25/01:30pm 20.5 17.3 2.8 31 8.3 SW 9 15 5 8 1017.5 1017.5 0.0
25/01:00pm 19.8 16.4 1.7 30 8.2 SW 9 15 5 8 1017.8 1017.8 0.0
25/12:30pm 19.0 16.0 2.0 32 7.8 SSW 7 13 4 7 1018.4 1018.4 0.0
25/12:00pm 18.6 14.8 2.0 33 7.5 SSE 11 19 6 10 1018.9 1018.9 0.0
25/11:30am 18.2 14.8 1.7 33 7.4 SW 9 19 5 10 1019.5 1019.5 0.0
25/11:00am 17.2 12.9 0.8 33 7.2 SW 13 22 7 12 1019.7 1019.7 0.0
25/10:30am 16.9 12.7 1.4 35 6.9 SSW 13 20 7 11 1020.0 1020.0 0.0
25/10:00am 16.4 11.8 1.3 36 6.6 SSW 15 22 8 12 1020.2 1020.2 0.0
25/09:30am 15.8 11.6 1.9 39 6.2 S 13 24 7 13 1020.2 1020.2 0.0
25/09:00am 15.1 10.5 1.6 40 5.9 S 15 26 8 14 1020.2 1020.2 0.0
25/08:30am 14.4 10.3 2.0 43 5.4 S 13 20 7 11 1019.9 1019.9 0.0
25/08:00am 14.0 9.6 2.9 47 4.9 S 15 32 8 17 1019.5 1019.5 0.0
25/07:30am 13.2 8.4 2.7 49 4.6 SSW 17 24 9 13 1019.3 1019.3 0.0
25/07:00am 12.8 9.6 2.9 51 4.4 S 9 13 5 7 1019.1 1019.1 0.0
25/06:30am 12.3 9.3 4.3 58 3.6 SSW 9 17 5 9 1018.7 1018.7 0.0
25/06:00am 12.1 9.3 5.0 62 3.3 SSW 9 11 5 6 1018.6 1018.6 0.0
25/05:30am 12.6 10.7 5.1 60 3.5 SW 4 7 2 4 1018.1 1018.1 0.0
25/05:00am 13.2 10.7 4.9 57 3.8 SSW 7 11 4 6 1017.6 1017.6 0.0
25/04:30am 13.9 11.4 5.0 55 4.1 SW 7 11 4 6 1017.4 1017.4 0.0
25/04:00am 14.8 11.2 4.8 51 4.7 SSW 13 17 7 9 1017.1 1017.1 0.0
25/03:30am 15.5 11.5 4.8 49 5.0 SSW 15 24 8 13 1017.0 1017.0 0.0
25/03:00am 15.7 11.7 5.0 49 5.0 SSW 15 22 8 12 1016.7 1016.7 0.0
25/02:30am 16.4 12.5 5.4 48 5.3 SSW 15 24 8 13 1016.8 1016.8 0.0
25/02:00am 16.7 13.4 6.2 50 5.1 S 13 24 7 13 1016.9 1016.9 0.0
25/01:30am 17.0 13.5 7.1 52 4.9 SSW 15 24 8 13 1016.8 1016.8 0.0
25/01:00am 17.4 14.5 9.6 60 4.1 SSW 15 20 8 11 1016.8 1016.8 0.0
25/12:30am 16.7 15.1 11.6 72 2.8 SSW 11 17 6 9 1016.7 1016.7 0.0
25/12:00am 16.2 15.2 12.2 77 2.2 SW 9 13 5 7 1016.4 1016.4 0.0
 
Date/Time
EST
Temp
°C
App
Temp
°C
Dew
Point
°C
Rel
Hum
%
Delta-T
°C
Wind Press
QNH
hPa
Press
MSL
hPa
Rain since
9am
mm
Dir  Spd
km/h
Gust
km/h
Spd
kts
Gust
kts
24/11:30pm 16.8 16.1 12.1 74 2.6 SSW 7 11 4 6 1016.3 1016.3 0.0
24/11:00pm 17.6 16.6 12.3 71 2.9 SSW 9 11 5 6 1016.1 1016.1 0.0
24/10:30pm 17.4 16.5 12.7 74 2.6 SW 9 13 5 7 1015.8 1015.8 0.0
24/10:00pm 16.2 15.7 12.6 79 2.0 S 7 11 4 6 1015.5 1015.5 0.0
24/09:30pm 16.6 17.5 12.9 79 2.1 CALM 0 0 0 0 1015.3 1015.3 0.0
24/09:00pm 17.1 18.0 13.0 77 2.3 CALM 0 0 0 0 1015.2 1015.2 0.0
24/08:30pm 17.4 18.4 13.1 76 2.4 CALM 0 0 0 0 1015.2 1015.2 0.0
24/08:00pm 18.3 19.4 13.6 74 2.7 CALM 0 0 0 0 1015.0 1015.0 0.0
24/07:30pm 18.8 18.1 13.2 70 3.2 W 9 9 5 5 1014.7 1014.7 0.0
24/07:00pm 19.5 20.6 13.4 68 3.5 CALM 0 0 0 0 1014.4 1014.4 0.0
24/06:30pm 20.6 20.4 13.1 62 4.3 WNW 6 6 3 3 1013.9 1013.9 0.0
24/06:00pm 22.2 22.0 13.0 56 5.3 WNW 6 7 3 4 1013.4 1013.4 0.0

Other Formats:

Comma delimited format used in spreadsheet applications
http://www.bom.gov.au/fwo/IDQ60801/IDQ60801.94381.axf

JavaScript Object Notation format (JSON) in row-major order
http://www.bom.gov.au/fwo/IDQ60801/IDQ60801.94381.json